sensor_id;sensor_type;location;lat;lon;timestamp;P1;durP1;ratioP1;P2;durP2;ratioP2
20073;SDS011;10197;54.282;10.078;2023-02-01T00:00:14;32.78;;;5.65;;
20073;SDS011;10197;54.282;10.078;2023-02-01T00:02:41;29.45;;;5.43;;
20073;SDS011;10197;54.282;10.078;2023-02-01T00:05:09;35.60;;;7.93;;
20073;SDS011;10197;54.282;10.078;2023-02-01T00:07:36;20.92;;;5.15;;
20073;SDS011;10197;54.282;10.078;2023-02-01T00:10:06;27.80;;;5.88;;
20073;SDS011;10197;54.282;10.078;2023-02-01T00:12:33;28.58;;;6.65;;
20073;SDS011;10197;54.282;10.078;2023-02-01T00:15:00;31.90;;;6.55;;
20073;SDS011;10197;54.282;10.078;2023-02-01T00:17:29;30.02;;;6.65;;
20073;SDS011;10197;54.282;10.078;2023-02-01T00:19:55;29.25;;;5.63;;
20073;SDS011;10197;54.282;10.078;2023-02-01T00:22:22;31.80;;;5.93;;
20073;SDS011;10197;54.282;10.078;2023-02-01T00:24:49;35.35;;;6.88;;
20073;SDS011;10197;54.282;10.078;2023-02-01T00:27:17;32.80;;;7.53;;
20073;SDS011;10197;54.282;10.078;2023-02-01T00:29:47;38.97;;;6.88;;
20073;SDS011;10197;54.282;10.078;2023-02-01T00:32:14;30.92;;;6.13;;
20073;SDS011;10197;54.282;10.078;2023-02-01T00:34:41;42.25;;;6.32;;
20073;SDS011;10197;54.282;10.078;2023-02-01T00:37:08;35.03;;;6.30;;
20073;SDS011;10197;54.282;10.078;2023-02-01T00:39:35;35.58;;;8.05;;
20073;SDS011;10197;54.282;10.078;2023-02-01T00:42:01;33.10;;;7.70;;
20073;SDS011;10197;54.282;10.078;2023-02-01T00:44:30;35.00;;;7.32;;
20073;SDS011;10197;54.282;10.078;2023-02-01T00:46:59;31.52;;;6.47;;
20073;SDS011;10197;54.282;10.078;2023-02-01T00:49:26;37.45;;;7.05;;
20073;SDS011;10197;54.282;10.078;2023-02-01T00:51:53;42.17;;;7.72;;
20073;SDS011;10197;54.282;10.078;2023-02-01T00:54:20;36.28;;;7.85;;
20073;SDS011;10197;54.282;10.078;2023-02-01T00:56:47;33.65;;;6.38;;
20073;SDS011;10197;54.282;10.078;2023-02-01T00:59:14;37.25;;;6.65;;
20073;SDS011;10197;54.282;10.078;2023-02-01T01:01:43;32.25;;;7.32;;
20073;SDS011;10197;54.282;10.078;2023-02-01T01:04:10;40.80;;;7.75;;
20073;SDS011;10197;54.282;10.078;2023-02-01T01:06:37;33.75;;;7.05;;
20073;SDS011;10197;54.282;10.078;2023-02-01T01:09:04;33.30;;;7.07;;
20073;SDS011;10197;54.282;10.078;2023-02-01T01:11:32;42.03;;;7.20;;
20073;SDS011;10197;54.282;10.078;2023-02-01T01:14:04;34.40;;;6.30;;
20073;SDS011;10197;54.282;10.078;2023-02-01T01:16:32;43.22;;;7.75;;
20073;SDS011;10197;54.282;10.078;2023-02-01T01:19:00;35.60;;;5.95;;
20073;SDS011;10197;54.282;10.078;2023-02-01T01:21:28;31.15;;;6.85;;
20073;SDS011;10197;54.282;10.078;2023-02-01T01:23:55;24.33;;;6.07;;
20073;SDS011;10197;54.282;10.078;2023-02-01T01:26:23;34.30;;;6.80;;
20073;SDS011;10197;54.282;10.078;2023-02-01T01:28:51;39.28;;;6.72;;
20073;SDS011;10197;54.282;10.078;2023-02-01T01:31:18;38.83;;;6.80;;
20073;SDS011;10197;54.282;10.078;2023-02-01T01:33:47;35.42;;;7.35;;
20073;SDS011;10197;54.282;10.078;2023-02-01T01:36:16;34.80;;;6.68;;
20073;SDS011;10197;54.282;10.078;2023-02-01T01:38:43;30.52;;;6.32;;
20073;SDS011;10197;54.282;10.078;2023-02-01T01:41:13;29.83;;;6.57;;
20073;SDS011;10197;54.282;10.078;2023-02-01T01:43:46;36.08;;;7.18;;
20073;SDS011;10197;54.282;10.078;2023-02-01T01:46:17;32.90;;;6.20;;
20073;SDS011;10197;54.282;10.078;2023-02-01T01:48:44;34.08;;;7.70;;
20073;SDS011;10197;54.282;10.078;2023-02-01T01:51:12;34.10;;;7.53;;
20073;SDS011;10197;54.282;10.078;2023-02-01T01:53:43;37.78;;;8.13;;
20073;SDS011;10197;54.282;10.078;2023-02-01T01:56:11;33.47;;;8.13;;
20073;SDS011;10197;54.282;10.078;2023-02-01T01:58:39;33.03;;;6.32;;
20073;SDS011;10197;54.282;10.078;2023-02-01T02:01:06;31.83;;;6.45;;
20073;SDS011;10197;54.282;10.078;2023-02-01T02:03:34;38.45;;;6.72;;
20073;SDS011;10197;54.282;10.078;2023-02-01T02:06:05;27.98;;;6.28;;
20073;SDS011;10197;54.282;10.078;2023-02-01T02:08:39;47.70;;;7.65;;
20073;SDS011;10197;54.282;10.078;2023-02-01T02:11:09;34.40;;;6.75;;
20073;SDS011;10197;54.282;10.078;2023-02-01T02:13:38;33.15;;;6.18;;
20073;SDS011;10197;54.282;10.078;2023-02-01T02:16:20;39.97;;;6.93;;
20073;SDS011;10197;54.282;10.078;2023-02-01T02:18:54;33.80;;;6.90;;
20073;SDS011;10197;54.282;10.078;2023-02-01T02:21:29;33.10;;;6.95;;
20073;SDS011;10197;54.282;10.078;2023-02-01T02:27:04;35.63;;;8.40;;
20073;SDS011;10197;54.282;10.078;2023-02-01T02:29:56;36.38;;;7.60;;
20073;SDS011;10197;54.282;10.078;2023-02-01T02:32:54;38.63;;;6.30;;
20073;SDS011;10197;54.282;10.078;2023-02-01T02:35:43;32.88;;;6.88;;
20073;SDS011;10197;54.282;10.078;2023-02-01T02:38:15;32.22;;;7.13;;
20073;SDS011;10197;54.282;10.078;2023-02-01T02:40:48;36.92;;;6.85;;
20073;SDS011;10197;54.282;10.078;2023-02-01T02:43:19;45.33;;;8.02;;
20073;SDS011;10197;54.282;10.078;2023-02-01T02:46:06;38.72;;;7.60;;
20073;SDS011;10197;54.282;10.078;2023-02-01T02:48:58;35.53;;;7.32;;
20073;SDS011;10197;54.282;10.078;2023-02-01T02:51:28;36.95;;;8.50;;
20073;SDS011;10197;54.282;10.078;2023-02-01T02:54:17;41.30;;;8.20;;
20073;SDS011;10197;54.282;10.078;2023-02-01T02:57:03;39.88;;;8.25;;
20073;SDS011;10197;54.282;10.078;2023-02-01T02:59:51;39.45;;;7.78;;
20073;SDS011;10197;54.282;10.078;2023-02-01T03:02:36;42.83;;;7.95;;
20073;SDS011;10197;54.282;10.078;2023-02-01T03:05:22;36.53;;;8.18;;
20073;SDS011;10197;54.282;10.078;2023-02-01T03:07:55;42.53;;;8.15;;
20073;SDS011;10197;54.282;10.078;2023-02-01T03:10:31;44.80;;;7.35;;
20073;SDS011;10197;54.282;10.078;2023-02-01T03:13:03;51.03;;;8.55;;
20073;SDS011;10197;54.282;10.078;2023-02-01T03:15:34;34.42;;;7.63;;
20073;SDS011;10197;54.282;10.078;2023-02-01T03:18:04;43.17;;;7.80;;
20073;SDS011;10197;54.282;10.078;2023-02-01T03:20:35;37.80;;;7.53;;
20073;SDS011;10197;54.282;10.078;2023-02-01T03:23:04;41.05;;;8.43;;
20073;SDS011;10197;54.282;10.078;2023-02-01T03:25:32;34.10;;;7.50;;
20073;SDS011;10197;54.282;10.078;2023-02-01T03:28:00;46.20;;;8.40;;
20073;SDS011;10197;54.282;10.078;2023-02-01T03:30:30;40.65;;;8.82;;
20073;SDS011;10197;54.282;10.078;2023-02-01T03:33:00;38.70;;;7.90;;
20073;SDS011;10197;54.282;10.078;2023-02-01T03:35:39;41.40;;;7.90;;
20073;SDS011;10197;54.282;10.078;2023-02-01T03:38:08;45.92;;;7.72;;
20073;SDS011;10197;54.282;10.078;2023-02-01T03:40:41;42.20;;;8.07;;
20073;SDS011;10197;54.282;10.078;2023-02-01T03:43:10;50.15;;;8.70;;
20073;SDS011;10197;54.282;10.078;2023-02-01T03:45:41;39.95;;;7.85;;
20073;SDS011;10197;54.282;10.078;2023-02-01T03:48:10;39.75;;;8.02;;
20073;SDS011;10197;54.282;10.078;2023-02-01T03:50:47;36.38;;;8.82;;
20073;SDS011;10197;54.282;10.078;2023-02-01T03:53:16;18.98;;;6.28;;
20073;SDS011;10197;54.282;10.078;2023-02-01T03:55:45;19.67;;;4.68;;
20073;SDS011;10197;54.282;10.078;2023-02-01T03:58:14;16.60;;;3.83;;
20073;SDS011;10197;54.282;10.078;2023-02-01T04:00:43;11.10;;;4.10;;
20073;SDS011;10197;54.282;10.078;2023-02-01T04:03:12;15.95;;;3.67;;
20073;SDS011;10197;54.282;10.078;2023-02-01T04:05:40;13.25;;;3.08;;
20073;SDS011;10197;54.282;10.078;2023-02-01T04:08:09;16.02;;;3.63;;
20073;SDS011;10197;54.282;10.078;2023-02-01T04:10:35;17.40;;;3.92;;
20073;SDS011;10197;54.282;10.078;2023-02-01T04:13:02;12.13;;;3.30;;
20073;SDS011;10197;54.282;10.078;2023-02-01T04:15:29;13.30;;;3.50;;
20073;SDS011;10197;54.282;10.078;2023-02-01T04:17:56;12.68;;;3.08;;
20073;SDS011;10197;54.282;10.078;2023-02-01T04:20:23;18.45;;;4.25;;
20073;SDS011;10197;54.282;10.078;2023-02-01T04:22:51;10.75;;;2.78;;
20073;SDS011;10197;54.282;10.078;2023-02-01T04:25:18;15.02;;;3.42;;
20073;SDS011;10197;54.282;10.078;2023-02-01T04:27:46;14.80;;;3.92;;
20073;SDS011;10197;54.282;10.078;2023-02-01T04:30:14;13.00;;;3.22;;
20073;SDS011;10197;54.282;10.078;2023-02-01T04:32:41;14.45;;;3.45;;
20073;SDS011;10197;54.282;10.078;2023-02-01T04:35:08;17.65;;;4.00;;
20073;SDS011;10197;54.282;10.078;2023-02-01T04:37:37;18.70;;;3.85;;
20073;SDS011;10197;54.282;10.078;2023-02-01T04:40:06;13.50;;;3.53;;
20073;SDS011;10197;54.282;10.078;2023-02-01T04:42:33;13.02;;;3.53;;
20073;SDS011;10197;54.282;10.078;2023-02-01T04:45:00;16.33;;;3.90;;
20073;SDS011;10197;54.282;10.078;2023-02-01T04:47:27;20.42;;;4.00;;
20073;SDS011;10197;54.282;10.078;2023-02-01T04:49:54;18.75;;;3.88;;
20073;SDS011;10197;54.282;10.078;2023-02-01T04:52:23;19.73;;;4.53;;
20073;SDS011;10197;54.282;10.078;2023-02-01T04:54:50;16.88;;;4.10;;
20073;SDS011;10197;54.282;10.078;2023-02-01T04:57:20;20.08;;;4.72;;
20073;SDS011;10197;54.282;10.078;2023-02-01T04:59:48;18.13;;;4.38;;
20073;SDS011;10197;54.282;10.078;2023-02-01T05:02:15;20.38;;;4.03;;
20073;SDS011;10197;54.282;10.078;2023-02-01T05:04:42;18.63;;;4.80;;
20073;SDS011;10197;54.282;10.078;2023-02-01T05:07:09;15.40;;;4.43;;
20073;SDS011;10197;54.282;10.078;2023-02-01T05:09:35;22.27;;;4.53;;
20073;SDS011;10197;54.282;10.078;2023-02-01T05:12:02;16.50;;;4.20;;
20073;SDS011;10197;54.282;10.078;2023-02-01T05:14:49;14.93;;;4.18;;
20073;SDS011;10197;54.282;10.078;2023-02-01T05:17:16;15.63;;;4.07;;
20073;SDS011;10197;54.282;10.078;2023-02-01T05:19:42;19.65;;;4.93;;
20073;SDS011;10197;54.282;10.078;2023-02-01T05:22:10;19.42;;;4.20;;
20073;SDS011;10197;54.282;10.078;2023-02-01T05:24:37;23.50;;;4.60;;
20073;SDS011;10197;54.282;10.078;2023-02-01T05:27:03;27.63;;;4.35;;
20073;SDS011;10197;54.282;10.078;2023-02-01T05:29:30;17.15;;;3.88;;
20073;SDS011;10197;54.282;10.078;2023-02-01T05:31:59;22.05;;;4.57;;
20073;SDS011;10197;54.282;10.078;2023-02-01T05:34:25;18.73;;;4.32;;
20073;SDS011;10197;54.282;10.078;2023-02-01T05:36:52;11.65;;;3.28;;
20073;SDS011;10197;54.282;10.078;2023-02-01T05:39:22;17.33;;;3.97;;
20073;SDS011;10197;54.282;10.078;2023-02-01T05:41:48;17.65;;;3.67;;
20073;SDS011;10197;54.282;10.078;2023-02-01T05:44:16;23.35;;;4.75;;
20073;SDS011;10197;54.282;10.078;2023-02-01T05:46:43;21.40;;;4.15;;
20073;SDS011;10197;54.282;10.078;2023-02-01T05:49:11;21.92;;;4.03;;
20073;SDS011;10197;54.282;10.078;2023-02-01T05:51:42;18.02;;;3.78;;
20073;SDS011;10197;54.282;10.078;2023-02-01T05:54:10;16.30;;;4.32;;
20073;SDS011;10197;54.282;10.078;2023-02-01T05:56:37;23.17;;;3.78;;
20073;SDS011;10197;54.282;10.078;2023-02-01T05:59:03;15.80;;;3.97;;
20073;SDS011;10197;54.282;10.078;2023-02-01T06:01:30;15.27;;;4.05;;
20073;SDS011;10197;54.282;10.078;2023-02-01T06:03:57;19.77;;;4.35;;
20073;SDS011;10197;54.282;10.078;2023-02-01T06:06:25;21.05;;;4.43;;
20073;SDS011;10197;54.282;10.078;2023-02-01T06:08:52;22.02;;;4.90;;
20073;SDS011;10197;54.282;10.078;2023-02-01T06:11:19;23.48;;;4.75;;
20073;SDS011;10197;54.282;10.078;2023-02-01T06:13:46;21.23;;;4.55;;
20073;SDS011;10197;54.282;10.078;2023-02-01T06:16:13;19.45;;;4.57;;
20073;SDS011;10197;54.282;10.078;2023-02-01T06:18:41;18.17;;;3.90;;
20073;SDS011;10197;54.282;10.078;2023-02-01T06:21:08;17.80;;;4.65;;
20073;SDS011;10197;54.282;10.078;2023-02-01T06:23:36;24.90;;;4.28;;
20073;SDS011;10197;54.282;10.078;2023-02-01T06:26:05;21.27;;;4.72;;
20073;SDS011;10197;54.282;10.078;2023-02-01T06:28:36;14.48;;;3.90;;
20073;SDS011;10197;54.282;10.078;2023-02-01T06:31:04;17.17;;;3.97;;
20073;SDS011;10197;54.282;10.078;2023-02-01T06:33:32;17.77;;;4.68;;
20073;SDS011;10197;54.282;10.078;2023-02-01T06:36:00;18.40;;;3.83;;
20073;SDS011;10197;54.282;10.078;2023-02-01T06:38:33;19.17;;;4.18;;
20073;SDS011;10197;54.282;10.078;2023-02-01T06:41:02;24.08;;;4.50;;
20073;SDS011;10197;54.282;10.078;2023-02-01T06:43:31;17.35;;;4.00;;
20073;SDS011;10197;54.282;10.078;2023-02-01T06:45:59;15.60;;;3.70;;
20073;SDS011;10197;54.282;10.078;2023-02-01T06:48:26;24.00;;;4.57;;
20073;SDS011;10197;54.282;10.078;2023-02-01T06:50:53;26.80;;;4.70;;
20073;SDS011;10197;54.282;10.078;2023-02-01T06:53:20;25.98;;;4.95;;
20073;SDS011;10197;54.282;10.078;2023-02-01T06:55:57;21.38;;;3.65;;
20073;SDS011;10197;54.282;10.078;2023-02-01T06:58:34;30.15;;;4.70;;
20073;SDS011;10197;54.282;10.078;2023-02-01T07:01:04;28.75;;;4.45;;
20073;SDS011;10197;54.282;10.078;2023-02-01T07:03:31;30.88;;;5.82;;
20073;SDS011;10197;54.282;10.078;2023-02-01T07:05:58;30.75;;;6.00;;
20073;SDS011;10197;54.282;10.078;2023-02-01T07:08:26;31.35;;;6.55;;
20073;SDS011;10197;54.282;10.078;2023-02-01T07:10:53;23.30;;;5.38;;
20073;SDS011;10197;54.282;10.078;2023-02-01T07:13:21;29.05;;;5.40;;
20073;SDS011;10197;54.282;10.078;2023-02-01T07:15:49;33.10;;;6.30;;
20073;SDS011;10197;54.282;10.078;2023-02-01T07:18:19;35.15;;;5.80;;
20073;SDS011;10197;54.282;10.078;2023-02-01T07:20:49;41.03;;;6.57;;
20073;SDS011;10197;54.282;10.078;2023-02-01T07:23:16;32.45;;;6.07;;
20073;SDS011;10197;54.282;10.078;2023-02-01T07:25:43;37.35;;;6.22;;
20073;SDS011;10197;54.282;10.078;2023-02-01T07:28:10;28.10;;;6.38;;
20073;SDS011;10197;54.282;10.078;2023-02-01T07:30:37;40.63;;;7.70;;
20073;SDS011;10197;54.282;10.078;2023-02-01T07:33:05;30.85;;;6.65;;
20073;SDS011;10197;54.282;10.078;2023-02-01T07:35:33;29.30;;;5.53;;
20073;SDS011;10197;54.282;10.078;2023-02-01T07:37:59;33.67;;;7.10;;
20073;SDS011;10197;54.282;10.078;2023-02-01T07:40:26;30.50;;;6.22;;
20073;SDS011;10197;54.282;10.078;2023-02-01T07:42:55;41.60;;;6.15;;
20073;SDS011;10197;54.282;10.078;2023-02-01T07:45:23;34.25;;;7.10;;
20073;SDS011;10197;54.282;10.078;2023-02-01T07:47:51;46.45;;;8.35;;
20073;SDS011;10197;54.282;10.078;2023-02-01T07:50:20;35.25;;;7.10;;
20073;SDS011;10197;54.282;10.078;2023-02-01T07:52:48;33.33;;;6.93;;
20073;SDS011;10197;54.282;10.078;2023-02-01T07:55:14;31.77;;;6.40;;
20073;SDS011;10197;54.282;10.078;2023-02-01T07:57:41;29.42;;;6.97;;
20073;SDS011;10197;54.282;10.078;2023-02-01T08:00:09;30.63;;;6.63;;
20073;SDS011;10197;54.282;10.078;2023-02-01T08:02:54;32.42;;;6.43;;
20073;SDS011;10197;54.282;10.078;2023-02-01T08:05:22;32.65;;;6.82;;
20073;SDS011;10197;54.282;10.078;2023-02-01T08:07:49;29.15;;;5.75;;
20073;SDS011;10197;54.282;10.078;2023-02-01T08:10:16;29.45;;;7.30;;
20073;SDS011;10197;54.282;10.078;2023-02-01T08:12:44;26.25;;;6.15;;
20073;SDS011;10197;54.282;10.078;2023-02-01T08:15:13;27.75;;;6.10;;
20073;SDS011;10197;54.282;10.078;2023-02-01T08:17:45;25.45;;;4.80;;
20073;SDS011;10197;54.282;10.078;2023-02-01T08:20:14;24.42;;;5.45;;
20073;SDS011;10197;54.282;10.078;2023-02-01T08:22:43;23.70;;;5.63;;
20073;SDS011;10197;54.282;10.078;2023-02-01T08:25:10;21.98;;;5.00;;
20073;SDS011;10197;54.282;10.078;2023-02-01T08:27:37;24.60;;;5.43;;
20073;SDS011;10197;54.282;10.078;2023-02-01T08:30:05;20.65;;;5.00;;
20073;SDS011;10197;54.282;10.078;2023-02-01T08:32:33;23.23;;;4.78;;
20073;SDS011;10197;54.282;10.078;2023-02-01T08:35:00;29.52;;;4.60;;
20073;SDS011;10197;54.282;10.078;2023-02-01T08:37:27;31.92;;;5.68;;
20073;SDS011;10197;54.282;10.078;2023-02-01T08:39:56;22.02;;;5.95;;
20073;SDS011;10197;54.282;10.078;2023-02-01T08:42:23;21.48;;;4.85;;
20073;SDS011;10197;54.282;10.078;2023-02-01T08:45:08;31.52;;;5.60;;
20073;SDS011;10197;54.282;10.078;2023-02-01T08:47:36;23.90;;;4.85;;
20073;SDS011;10197;54.282;10.078;2023-02-01T08:50:03;22.25;;;5.57;;
20073;SDS011;10197;54.282;10.078;2023-02-01T08:52:30;20.67;;;4.70;;
20073;SDS011;10197;54.282;10.078;2023-02-01T08:55:01;20.33;;;5.22;;
20073;SDS011;10197;54.282;10.078;2023-02-01T08:57:32;21.27;;;6.25;;
20073;SDS011;10197;54.282;10.078;2023-02-01T09:00:00;17.00;;;5.00;;
20073;SDS011;10197;54.282;10.078;2023-02-01T09:02:27;21.35;;;4.72;;
20073;SDS011;10197;54.282;10.078;2023-02-01T09:04:55;22.42;;;5.20;;
20073;SDS011;10197;54.282;10.078;2023-02-01T09:07:23;20.50;;;5.53;;
20073;SDS011;10197;54.282;10.078;2023-02-01T09:09:52;26.25;;;5.60;;
20073;SDS011;10197;54.282;10.078;2023-02-01T09:17:49;25.92;;;5.00;;
20073;SDS011;10197;54.282;10.078;2023-02-01T09:20:16;21.60;;;4.75;;
20073;SDS011;10197;54.282;10.078;2023-02-01T09:26:04;28.30;;;5.57;;
20073;SDS011;10197;54.282;10.078;2023-02-01T09:28:34;29.45;;;6.28;;
20073;SDS011;10197;54.282;10.078;2023-02-01T09:31:02;28.52;;;6.78;;
20073;SDS011;10197;54.282;10.078;2023-02-01T09:33:31;27.17;;;5.82;;
20073;SDS011;10197;54.282;10.078;2023-02-01T09:36:00;32.40;;;6.20;;
20073;SDS011;10197;54.282;10.078;2023-02-01T09:39:16;25.73;;;5.55;;
20073;SDS011;10197;54.282;10.078;2023-02-01T10:16:48;22.92;;;5.80;;
20073;SDS011;10197;54.282;10.078;2023-02-01T10:19:23;33.33;;;6.68;;
20073;SDS011;10197;54.282;10.078;2023-02-01T10:21:58;33.25;;;7.70;;
20073;SDS011;10197;54.282;10.078;2023-02-01T10:27:12;23.45;;;5.90;;
20073;SDS011;10197;54.282;10.078;2023-02-01T10:29:42;27.50;;;5.30;;
20073;SDS011;10197;54.282;10.078;2023-02-01T10:32:13;31.08;;;5.82;;
20073;SDS011;10197;54.282;10.078;2023-02-01T10:34:42;29.25;;;6.18;;
20073;SDS011;10197;54.282;10.078;2023-02-01T10:37:17;32.13;;;5.43;;
20073;SDS011;10197;54.282;10.078;2023-02-01T10:40:33;28.88;;;5.57;;
20073;SDS011;10197;54.282;10.078;2023-02-01T10:43:01;25.35;;;6.05;;
20073;SDS011;10197;54.282;10.078;2023-02-01T10:45:29;32.13;;;5.97;;
20073;SDS011;10197;54.282;10.078;2023-02-01T10:49:17;30.55;;;5.78;;
20073;SDS011;10197;54.282;10.078;2023-02-01T10:51:47;28.02;;;6.32;;
20073;SDS011;10197;54.282;10.078;2023-02-01T10:54:18;30.50;;;7.63;;
20073;SDS011;10197;54.282;10.078;2023-02-01T10:56:46;25.77;;;5.82;;
20073;SDS011;10197;54.282;10.078;2023-02-01T10:59:14;31.52;;;6.85;;
20073;SDS011;10197;54.282;10.078;2023-02-01T11:01:43;24.40;;;5.93;;
20073;SDS011;10197;54.282;10.078;2023-02-01T11:04:12;32.17;;;7.15;;
20073;SDS011;10197;54.282;10.078;2023-02-01T11:06:42;34.50;;;6.10;;
20073;SDS011;10197;54.282;10.078;2023-02-01T11:09:11;32.10;;;6.40;;
20073;SDS011;10197;54.282;10.078;2023-02-01T11:14:34;31.17;;;5.78;;
20073;SDS011;10197;54.282;10.078;2023-02-01T11:17:15;32.92;;;6.85;;
20073;SDS011;10197;54.282;10.078;2023-02-01T11:19:44;31.25;;;6.07;;
20073;SDS011;10197;54.282;10.078;2023-02-01T11:22:12;36.95;;;6.45;;
20073;SDS011;10197;54.282;10.078;2023-02-01T11:24:40;28.40;;;5.05;;
20073;SDS011;10197;54.282;10.078;2023-02-01T11:30:13;34.55;;;7.00;;
20073;SDS011;10197;54.282;10.078;2023-02-01T11:32:41;25.13;;;5.55;;
20073;SDS011;10197;54.282;10.078;2023-02-01T11:35:11;34.45;;;6.63;;
20073;SDS011;10197;54.282;10.078;2023-02-01T11:37:45;33.40;;;6.93;;
20073;SDS011;10197;54.282;10.078;2023-02-01T11:40:25;28.90;;;5.70;;
20073;SDS011;10197;54.282;10.078;2023-02-01T11:42:53;29.73;;;6.20;;
20073;SDS011;10197;54.282;10.078;2023-02-01T11:45:25;35.58;;;6.05;;
20073;SDS011;10197;54.282;10.078;2023-02-01T11:47:54;30.52;;;6.43;;
20073;SDS011;10197;54.282;10.078;2023-02-01T11:50:25;33.60;;;6.25;;
20073;SDS011;10197;54.282;10.078;2023-02-01T11:53:02;29.98;;;6.43;;
20073;SDS011;10197;54.282;10.078;2023-02-01T11:55:48;25.90;;;6.72;;
20073;SDS011;10197;54.282;10.078;2023-02-01T11:58:26;35.10;;;6.85;;
20073;SDS011;10197;54.282;10.078;2023-02-01T12:01:04;37.17;;;6.88;;
20073;SDS011;10197;54.282;10.078;2023-02-01T12:03:43;27.40;;;5.95;;
20073;SDS011;10197;54.282;10.078;2023-02-01T12:06:21;19.63;;;3.95;;
20073;SDS011;10197;54.282;10.078;2023-02-01T12:09:13;6.88;;;2.28;;
20073;SDS011;10197;54.282;10.078;2023-02-01T12:11:51;8.98;;;2.30;;
20073;SDS011;10197;54.282;10.078;2023-02-01T12:14:24;8.98;;;2.72;;
20073;SDS011;10197;54.282;10.078;2023-02-01T12:19:50;6.90;;;2.55;;
20073;SDS011;10197;54.282;10.078;2023-02-01T12:22:29;6.35;;;2.10;;
20073;SDS011;10197;54.282;10.078;2023-02-01T12:27:56;8.48;;;2.30;;
20073;SDS011;10197;54.282;10.078;2023-02-01T12:30:45;5.75;;;2.20;;
20073;SDS011;10197;54.282;10.078;2023-02-01T12:33:18;9.30;;;2.60;;
20073;SDS011;10197;54.282;10.078;2023-02-01T12:35:57;11.13;;;3.13;;
20073;SDS011;10197;54.282;10.078;2023-02-01T12:38:39;11.63;;;3.05;;
20073;SDS011;10197;54.282;10.078;2023-02-01T12:44:17;13.05;;;4.05;;
20073;SDS011;10197;54.282;10.078;2023-02-01T12:46:52;20.05;;;4.80;;
20073;SDS011;10197;54.282;10.078;2023-02-01T12:49:21;20.02;;;4.63;;
20073;SDS011;10197;54.282;10.078;2023-02-01T12:51:52;27.75;;;5.85;;
20073;SDS011;10197;54.282;10.078;2023-02-01T12:54:28;20.25;;;4.90;;
20073;SDS011;10197;54.282;10.078;2023-02-01T12:57:02;26.45;;;5.55;;
20073;SDS011;10197;54.282;10.078;2023-02-01T12:59:33;19.63;;;5.07;;
20073;SDS011;10197;54.282;10.078;2023-02-01T13:02:04;15.40;;;4.45;;
20073;SDS011;10197;54.282;10.078;2023-02-01T13:04:42;14.23;;;3.55;;
20073;SDS011;10197;54.282;10.078;2023-02-01T13:07:16;20.23;;;4.20;;
20073;SDS011;10197;54.282;10.078;2023-02-01T13:09:45;19.08;;;4.43;;
20073;SDS011;10197;54.282;10.078;2023-02-01T13:12:18;16.33;;;4.20;;
20073;SDS011;10197;54.282;10.078;2023-02-01T13:14:48;11.40;;;3.20;;
20073;SDS011;10197;54.282;10.078;2023-02-01T13:17:22;14.30;;;3.22;;
20073;SDS011;10197;54.282;10.078;2023-02-01T13:19:53;21.77;;;3.72;;
20073;SDS011;10197;54.282;10.078;2023-02-01T13:22:25;15.75;;;3.40;;
20073;SDS011;10197;54.282;10.078;2023-02-01T13:24:58;19.83;;;3.80;;
20073;SDS011;10197;54.282;10.078;2023-02-01T13:27:29;16.23;;;3.63;;
20073;SDS011;10197;54.282;10.078;2023-02-01T13:29:57;20.48;;;3.90;;
20073;SDS011;10197;54.282;10.078;2023-02-01T13:38:27;10.38;;;3.40;;
20073;SDS011;10197;54.282;10.078;2023-02-01T13:41:15;11.45;;;3.50;;
20073;SDS011;10197;54.282;10.078;2023-02-01T13:43:55;14.55;;;3.45;;
20073;SDS011;10197;54.282;10.078;2023-02-01T13:46:24;14.00;;;3.47;;
20073;SDS011;10197;54.282;10.078;2023-02-01T13:48:55;17.17;;;4.22;;
20073;SDS011;10197;54.282;10.078;2023-02-01T13:51:35;16.45;;;3.60;;
20073;SDS011;10197;54.282;10.078;2023-02-01T13:54:06;12.90;;;3.85;;
20073;SDS011;10197;54.282;10.078;2023-02-01T13:56:39;19.80;;;4.10;;
20073;SDS011;10197;54.282;10.078;2023-02-01T14:02:45;25.08;;;4.47;;
20073;SDS011;10197;54.282;10.078;2023-02-01T14:08:22;19.30;;;3.85;;
20073;SDS011;10197;54.282;10.078;2023-02-01T14:10:50;22.38;;;4.50;;
20073;SDS011;10197;54.282;10.078;2023-02-01T14:13:24;22.90;;;5.00;;
20073;SDS011;10197;54.282;10.078;2023-02-01T14:19:00;17.20;;;4.38;;
20073;SDS011;10197;54.282;10.078;2023-02-01T14:21:30;19.90;;;4.78;;
20073;SDS011;10197;54.282;10.078;2023-02-01T14:23:59;18.27;;;4.57;;
20073;SDS011;10197;54.282;10.078;2023-02-01T14:26:40;17.35;;;4.15;;
20073;SDS011;10197;54.282;10.078;2023-02-01T14:29:15;23.83;;;5.57;;
20073;SDS011;10197;54.282;10.078;2023-02-01T14:34:49;18.42;;;5.15;;
20073;SDS011;10197;54.282;10.078;2023-02-01T14:37:24;20.65;;;5.15;;
20073;SDS011;10197;54.282;10.078;2023-02-01T14:39:54;24.92;;;4.93;;
20073;SDS011;10197;54.282;10.078;2023-02-01T14:42:26;29.40;;;10.05;;
20073;SDS011;10197;54.282;10.078;2023-02-01T14:44:55;25.63;;;6.03;;
20073;SDS011;10197;54.282;10.078;2023-02-01T14:47:27;27.08;;;8.90;;
20073;SDS011;10197;54.282;10.078;2023-02-01T14:49:58;25.13;;;6.28;;
20073;SDS011;10197;54.282;10.078;2023-02-01T14:52:30;28.05;;;7.07;;
20073;SDS011;10197;54.282;10.078;2023-02-01T14:55:00;24.25;;;6.63;;
20073;SDS011;10197;54.282;10.078;2023-02-01T14:57:32;26.52;;;5.93;;
20073;SDS011;10197;54.282;10.078;2023-02-01T15:00:05;25.40;;;5.90;;
20073;SDS011;10197;54.282;10.078;2023-02-01T15:02:35;26.90;;;5.90;;
20073;SDS011;10197;54.282;10.078;2023-02-01T15:05:16;26.88;;;6.13;;
20073;SDS011;10197;54.282;10.078;2023-02-01T15:07:49;23.80;;;5.63;;
20073;SDS011;10197;54.282;10.078;2023-02-01T15:10:17;31.80;;;6.45;;
20073;SDS011;10197;54.282;10.078;2023-02-01T15:12:45;25.20;;;7.18;;
20073;SDS011;10197;54.282;10.078;2023-02-01T15:15:15;30.73;;;6.07;;
20073;SDS011;10197;54.282;10.078;2023-02-01T15:17:49;24.88;;;5.35;;
20073;SDS011;10197;54.282;10.078;2023-02-01T15:20:18;32.83;;;5.95;;
20073;SDS011;10197;54.282;10.078;2023-02-01T15:22:54;25.02;;;5.70;;
20073;SDS011;10197;54.282;10.078;2023-02-01T15:25:23;27.10;;;6.38;;
20073;SDS011;10197;54.282;10.078;2023-02-01T15:27:51;28.77;;;6.28;;
20073;SDS011;10197;54.282;10.078;2023-02-01T15:30:19;34.83;;;6.75;;
20073;SDS011;10197;54.282;10.078;2023-02-01T15:32:47;38.78;;;6.97;;
20073;SDS011;10197;54.282;10.078;2023-02-01T15:35:39;32.88;;;7.75;;
20073;SDS011;10197;54.282;10.078;2023-02-01T15:38:18;40.92;;;7.45;;
20073;SDS011;10197;54.282;10.078;2023-02-01T15:40:57;39.55;;;8.23;;
20073;SDS011;10197;54.282;10.078;2023-02-01T15:43:27;32.88;;;8.55;;
20073;SDS011;10197;54.282;10.078;2023-02-01T15:45:55;36.10;;;8.35;;
20073;SDS011;10197;54.282;10.078;2023-02-01T15:48:23;41.72;;;7.72;;
20073;SDS011;10197;54.282;10.078;2023-02-01T15:50:53;42.33;;;7.32;;
20073;SDS011;10197;54.282;10.078;2023-02-01T15:53:21;32.95;;;7.80;;
20073;SDS011;10197;54.282;10.078;2023-02-01T15:55:51;45.88;;;8.73;;
20073;SDS011;10197;54.282;10.078;2023-02-01T15:58:20;36.60;;;8.68;;
20073;SDS011;10197;54.282;10.078;2023-02-01T16:00:48;41.25;;;10.98;;
20073;SDS011;10197;54.282;10.078;2023-02-01T16:03:33;47.35;;;9.18;;
20073;SDS011;10197;54.282;10.078;2023-02-01T16:06:03;37.70;;;8.30;;